Time;durP1;ratioP1;P1;durP2;ratioP2;P2;SDS_P1;SDS_P2;PMS_P1;PMS_P2;Temp;Humidity;BMP_temperature;BMP_pressure;BME280_temperature;BME280_humidity;BME280_pressure;Samples;Min_cycle;Max_cycle;Signal;HPM_P1;HPM_P2
2023/11/18 00:00:35;;;;;;;2.33;0.60;;;;;;;5.72;100.00;101672.75;5056021;28;21005;-70
2023/11/18 00:03:02;;;;;;;4.03;2.17;;;;;;;5.75;100.00;101677.63;5055919;28;21004;-70
2023/11/18 00:05:29;;;;;;;3.80;1.30;;;;;;;5.67;100.00;101676.16;5056088;28;20437;-70
2023/11/18 00:07:56;;;;;;;2.80;0.80;;;;;;;5.66;100.00;101679.06;5056039;28;20522;-70
2023/11/18 00:10:23;;;;;;;2.23;0.77;;;;;;;5.67;100.00;101688.78;5056004;28;20446;-70
2023/11/18 00:12:51;;;;;;;2.67;1.27;;;;;;;5.68;100.00;101688.53;5056028;28;20446;-70
2023/11/18 00:15:19;;;;;;;2.57;0.60;;;;;;;5.71;100.00;101681.84;5056118;28;20501;-70
2023/11/18 00:17:46;;;;;;;3.23;1.50;;;;;;;5.69;100.00;101700.91;5056081;28;20517;-70
2023/11/18 00:20:13;;;;;;;2.47;1.00;;;;;;;5.70;100.00;101701.72;5055528;28;20485;-70
2023/11/18 00:22:41;;;;;;;3.23;1.07;;;;;;;5.71;100.00;101709.56;5055728;28;20453;-70
2023/11/18 00:25:08;;;;;;;3.23;1.27;;;;;;;5.74;100.00;101709.06;5055971;28;20461;-70
2023/11/18 00:27:36;;;;;;;3.33;1.03;;;;;;;5.73;100.00;101714.69;5055794;28;20952;-70
2023/11/18 00:30:08;;;;;;;2.63;0.87;;;;;;;5.75;100.00;101712.56;5055877;28;20447;-70
2023/11/18 00:32:35;;;;;;;2.30;0.70;;;;;;;5.77;100.00;101719.34;5055700;28;20469;-70
2023/11/18 00:35:02;;;;;;;4.23;1.20;;;;;;;5.71;100.00;101720.31;5055577;28;20466;-70
2023/11/18 00:37:28;;;;;;;2.90;1.17;;;;;;;5.74;100.00;101725.19;5055721;28;20569;-70
2023/11/18 00:39:55;;;;;;;3.73;1.00;;;;;;;5.74;100.00;101719.81;5055311;28;20484;-70
2023/11/18 00:42:21;;;;;;;2.53;0.83;;;;;;;5.72;100.00;101721.94;5055479;28;20466;-70
2023/11/18 00:44:48;;;;;;;2.50;1.17;;;;;;;5.66;100.00;101728.25;5055324;28;20507;-70
2023/11/18 00:47:16;;;;;;;2.30;0.70;;;;;;;5.66;100.00;101736.31;5055260;28;20442;-70
2023/11/18 00:49:43;;;;;;;3.30;1.13;;;;;;;5.69;100.00;101738.53;5055355;28;20922;-70
2023/11/18 00:52:10;;;;;;;2.50;0.93;;;;;;;5.61;100.00;101746.16;5055655;28;20516;-70
2023/11/18 00:54:36;;;;;;;3.20;1.40;;;;;;;5.66;100.00;101746.25;5054417;28;20547;-67
2023/11/18 00:57:03;;;;;;;2.57;0.77;;;;;;;5.65;100.00;101745.44;5055030;28;20489;-68
2023/11/18 00:59:30;;;;;;;4.17;1.17;;;;;;;5.67;100.00;101750.59;5055276;28;20871;-72
2023/11/18 01:01:57;;;;;;;2.93;1.13;;;;;;;5.71;100.00;101757.94;5070182;22;20485;-65
2023/11/18 01:04:25;;;;;;;4.10;1.40;;;;;;;5.76;100.00;101749.97;5034909;28;20459;-64
2023/11/18 01:06:52;;;;;;;3.60;1.20;;;;;;;5.78;100.00;101755.91;5035217;28;20461;-64
2023/11/18 01:09:19;;;;;;;2.73;0.80;;;;;;;5.78;100.00;101763.16;5034992;28;20539;-65
2023/11/18 01:11:46;;;;;;;2.33;1.00;;;;;;;5.72;100.00;101770.34;5034880;28;20455;-65
2023/11/18 01:14:11;;;;;;;3.50;1.23;;;;;;;5.78;100.00;101780.13;5034859;28;20467;-65
2023/11/18 01:16:38;;;;;;;2.40;0.73;;;;;;;5.72;100.00;101777.59;5034896;28;20557;-65
2023/11/18 01:19:08;;;;;;;3.03;1.43;;;;;;;5.72;100.00;101778.41;5034516;28;20295;-65
2023/11/18 01:21:37;;;;;;;2.57;0.90;;;;;;;5.76;100.00;101784.13;5035053;28;20423;-64
2023/11/18 01:24:06;;;;;;;2.17;0.60;;;;;;;5.77;100.00;101778.50;5034512;28;20459;-65
2023/11/18 01:26:32;;;;;;;2.23;1.00;;;;;;;5.83;100.00;101779.41;5034319;28;20927;-65
2023/11/18 01:28:59;;;;;;;2.33;0.80;;;;;;;5.87;100.00;101785.13;5034698;28;20542;-65
2023/11/18 01:31:26;;;;;;;2.67;0.87;;;;;;;5.83;100.00;101782.91;5034865;28;20443;-65
2023/11/18 01:33:55;;;;;;;4.67;1.27;;;;;;;5.82;100.00;101792.03;5034470;28;20521;-65
2023/11/18 01:36:23;;;;;;;2.27;0.80;;;;;;;5.83;100.00;101790.97;5034082;28;20482;-65
2023/11/18 01:38:51;;;;;;;3.10;1.00;;;;;;;5.77;100.00;101793.81;5035358;28;20762;-64
2023/11/18 01:41:19;;;;;;;2.00;0.60;;;;;;;5.71;100.00;101790.22;5034015;28;20443;-64
2023/11/18 01:43:46;;;;;;;3.10;1.03;;;;;;;5.81;100.00;101792.28;5034277;28;20494;-64
2023/11/18 01:46:13;;;;;;;2.63;1.17;;;;;;;5.76;100.00;101795.69;5034273;28;20923;-65
2023/11/18 01:48:41;;;;;;;3.30;0.90;;;;;;;5.76;100.00;101793.00;5033952;28;20878;-65
2023/11/18 01:51:10;;;;;;;2.90;1.23;;;;;;;5.77;100.00;101791.94;5034399;28;20443;-65
2023/11/18 01:53:38;;;;;;;2.53;0.70;;;;;;;5.76;100.00;101793.00;5034507;28;20457;-65
2023/11/18 01:56:08;;;;;;;2.00;0.60;;;;;;;5.69;100.00;101795.00;5034615;28;20469;-65
2023/11/18 01:58:36;;;;;;;2.53;0.87;;;;;;;5.63;100.00;101793.25;5034240;28;20518;-64
2023/11/18 02:01:07;;;;;;;2.60;0.90;;;;;;;5.67;100.00;101797.13;5034096;28;20435;-65
2023/11/18 02:03:34;;;;;;;2.83;1.27;;;;;;;5.64;100.00;101804.84;5033649;28;20566;-65
2023/11/18 02:06:01;;;;;;;3.53;1.10;;;;;;;5.64;100.00;101800.28;5032835;28;20435;-65
2023/11/18 02:08:28;;;;;;;4.20;0.87;;;;;;;5.67;100.00;101804.38;5033668;28;20441;-65
2023/11/18 02:11:01;;;;;;;3.70;0.93;;;;;;;5.57;100.00;101804.94;5034255;28;20443;-65
2023/11/18 02:13:34;;;;;;;2.73;1.00;;;;;;;5.51;100.00;101803.22;5033970;28;20491;-65
2023/11/18 02:16:00;;;;;;;1.90;0.60;;;;;;;5.56;100.00;101806.81;5033905;28;20454;-65
2023/11/18 02:18:29;;;;;;;2.63;1.20;;;;;;;5.59;100.00;101808.22;5034226;28;20482;-65
2023/11/18 02:20:57;;;;;;;2.93;1.30;;;;;;;5.63;100.00;101811.25;5034148;28;20514;-65
2023/11/18 02:23:26;;;;;;;2.93;1.10;;;;;;;5.62;100.00;101812.28;5033592;28;20459;-65
2023/11/18 02:25:55;;;;;;;2.30;1.03;;;;;;;5.57;100.00;101810.31;5033629;28;20497;-65
2023/11/18 02:28:22;;;;;;;4.37;1.77;;;;;;;5.53;100.00;101814.53;5033685;28;20489;-65
2023/11/18 02:30:54;;;;;;;3.23;1.23;;;;;;;5.49;100.00;101814.22;5033613;28;20435;-65
2023/11/18 02:33:29;;;;;;;2.87;0.90;;;;;;;5.53;100.00;101817.22;5033448;28;20555;-65
2023/11/18 02:36:05;;;;;;;2.83;1.00;;;;;;;5.52;100.00;101807.53;5033605;28;20873;-65
2023/11/18 02:38:36;;;;;;;2.93;1.00;;;;;;;5.53;100.00;101818.06;5033168;28;20470;-65
2023/11/18 02:41:10;;;;;;;3.30;1.63;;;;;;;5.57;100.00;101815.69;5033407;28;20767;-65
2023/11/18 02:43:39;;;;;;;3.60;1.50;;;;;;;5.56;100.00;101820.25;5033204;28;20499;-65
2023/11/18 02:46:07;;;;;;;2.40;0.63;;;;;;;5.57;100.00;101821.06;5033488;28;20462;-65
2023/11/18 02:48:35;;;;;;;4.20;1.20;;;;;;;5.57;100.00;101818.38;5033838;28;20449;-65
2023/11/18 02:51:02;;;;;;;3.30;1.23;;;;;;;5.55;100.00;101820.50;5033242;28;20935;-65
2023/11/18 02:53:29;;;;;;;2.47;0.63;;;;;;;5.51;100.00;101816.66;5035660;28;20835;-65
2023/11/18 02:56:02;;;;;;;2.90;1.30;;;;;;;5.44;100.00;101821.31;5033893;28;20475;-65
2023/11/18 02:58:30;;;;;;;2.63;0.83;;;;;;;5.44;100.00;101816.78;5033830;28;20470;-65
2023/11/18 03:00:57;;;;;;;2.27;0.87;;;;;;;5.35;100.00;101818.19;5033084;28;20479;-65
2023/11/18 03:03:23;;;;;;;2.00;0.50;;;;;;;5.37;100.00;101817.97;5033164;28;20481;-65
2023/11/18 03:05:50;;;;;;;2.73;1.23;;;;;;;5.36;100.00;101813.63;5033645;28;20439;-65
2023/11/18 03:08:16;;;;;;;3.43;1.50;;;;;;;5.35;100.00;101817.38;5033171;28;20810;-65
2023/11/18 03:10:44;;;;;;;4.23;0.70;;;;;;;5.32;100.00;101806.06;5033408;28;20530;-66
2023/11/18 03:13:12;;;;;;;2.87;1.00;;;;;;;5.28;100.00;101815.63;5033375;28;20447;-64
2023/11/18 03:15:40;;;;;;;3.30;0.70;;;;;;;5.30;100.00;101818.88;5033324;28;20458;-65
2023/11/18 03:18:06;;;;;;;2.20;0.80;;;;;;;5.35;100.00;101818.19;5035016;28;20482;-65
2023/11/18 03:20:34;;;;;;;2.67;0.87;;;;;;;5.29;100.00;101817.25;5037441;28;20522;-65
2023/11/18 03:23:01;;;;;;;2.10;0.70;;;;;;;5.26;100.00;101820.41;5036859;28;20946;-64
2023/11/18 03:25:28;;;;;;;3.67;1.27;;;;;;;5.28;100.00;101820.19;5038022;28;20528;-66
2023/11/18 03:27:55;;;;;;;3.30;1.23;;;;;;;5.25;100.00;101818.78;5036763;28;20525;-64
2023/11/18 03:30:22;;;;;;;1.90;0.50;;;;;;;5.28;100.00;101823.69;5037219;28;20450;-65
2023/11/18 03:32:50;;;;;;;4.07;1.60;;;;;;;5.24;100.00;101821.72;5036881;28;20478;-66
2023/11/18 03:35:16;;;;;;;2.60;0.90;;;;;;;5.31;100.00;101820.56;5036418;28;20896;-64
2023/11/18 03:37:43;;;;;;;3.83;1.60;;;;;;;5.29;100.00;101828.00;5036678;28;20478;-64
2023/11/18 03:40:12;;;;;;;3.13;1.40;;;;;;;5.32;100.00;101829.44;5036464;28;20598;-64
2023/11/18 03:42:39;;;;;;;4.77;1.33;;;;;;;5.32;100.00;101835.59;5036712;28;20438;-64
2023/11/18 03:45:07;;;;;;;6.17;1.47;;;;;;;5.29;100.00;101837.94;5036868;28;20463;-64
2023/11/18 03:47:34;;;;;;;2.10;0.60;;;;;;;5.28;100.00;101841.69;5036835;28;20437;-64
2023/11/18 03:50:02;;;;;;;3.53;1.13;;;;;;;5.28;100.00;101833.63;5036203;28;20951;-64
2023/11/18 03:52:29;;;;;;;2.93;1.17;;;;;;;5.28;100.00;101833.63;5036588;28;20473;-65
2023/11/18 03:54:56;;;;;;;4.80;1.87;;;;;;;5.27;100.00;101835.50;5036119;28;21005;-64
2023/11/18 03:57:22;;;;;;;2.30;0.70;;;;;;;5.27;100.00;101840.88;5036574;28;20572;-64
2023/11/18 03:59:50;;;;;;;3.03;1.07;;;;;;;5.22;100.00;101835.38;5036171;28;20481;-65
2023/11/18 04:02:17;;;;;;;2.27;0.87;;;;;;;5.22;100.00;101850.66;5036130;28;20462;-65
2023/11/18 04:04:44;;;;;;;3.67;1.10;;;;;;;5.22;100.00;101840.75;5035903;28;20467;-65
2023/11/18 04:07:12;;;;;;;2.10;0.67;;;;;;;5.28;100.00;101847.88;5036201;28;20935;-64
2023/11/18 04:09:41;;;;;;;3.43;1.03;;;;;;;5.27;100.00;101842.75;5036268;28;20439;-65
2023/11/18 04:12:08;;;;;;;3.37;1.37;;;;;;;5.29;100.00;101849.50;5036400;28;20444;-64
2023/11/18 04:14:34;;;;;;;4.60;1.63;;;;;;;5.29;100.00;101846.00;5036132;28;20513;-65
2023/11/18 04:17:01;;;;;;;2.93;1.00;;;;;;;5.28;100.00;101855.13;5036308;28;20486;-64
2023/11/18 04:19:28;;;;;;;2.40;0.97;;;;;;;5.35;100.00;101868.41;5036088;28;20867;-64
2023/11/18 04:21:54;;;;;;;1.83;0.43;;;;;;;5.40;100.00;101868.53;5035697;28;20943;-65
2023/11/18 04:24:22;;;;;;;4.07;1.27;;;;;;;5.34;100.00;101869.47;5035552;28;20455;-65
2023/11/18 04:26:49;;;;;;;2.97;1.07;;;;;;;5.29;100.00;101857.56;5035885;28;20864;-65
2023/11/18 04:29:16;;;;;;;4.10;1.60;;;;;;;5.29;100.00;101857.56;5034915;28;20450;-65
2023/11/18 04:31:43;;;;;;;4.30;2.17;;;;;;;5.28;100.00;101864.00;5035727;28;20518;-64
2023/11/18 04:34:10;;;;;;;2.57;1.07;;;;;;;5.23;100.00;101858.50;5035514;28;20558;-64
2023/11/18 04:36:37;;;;;;;2.60;0.97;;;;;;;5.16;100.00;101862.34;5036089;28;20462;-64
2023/11/18 04:39:04;;;;;;;2.67;1.50;;;;;;;5.18;100.00;101866.44;5035155;28;20541;-64
2023/11/18 04:41:32;;;;;;;3.53;1.30;;;;;;;5.17;100.00;101870.16;5035547;28;20475;-64
2023/11/18 04:43:59;;;;;;;2.07;0.70;;;;;;;5.10;100.00;101858.75;5035174;28;20455;-64
2023/11/18 04:46:25;;;;;;;2.50;0.80;;;;;;;5.10;100.00;101866.78;5035451;28;20542;-66
2023/11/18 04:48:53;;;;;;;3.60;1.07;;;;;;;5.11;100.00;101864.91;5035131;28;20436;-64
2023/11/18 04:51:21;;;;;;;2.77;1.07;;;;;;;5.07;100.00;101865.38;5035039;28;20489;-64
2023/11/18 04:53:47;;;;;;;2.60;0.90;;;;;;;5.07;100.00;101873.44;5035343;28;20466;-64
2023/11/18 04:56:16;;;;;;;2.77;1.10;;;;;;;5.04;100.00;101878.44;5034921;28;20445;-64
2023/11/18 04:58:46;;;;;;;6.83;1.40;;;;;;;4.95;100.00;101867.22;5035139;28;20545;-64
2023/11/18 05:01:13;;;;;;;2.00;0.60;;;;;;;4.91;100.00;101875.97;5035109;28;20871;-65
2023/11/18 05:03:40;;;;;;;2.73;1.40;;;;;;;4.85;100.00;101882.28;5034901;28;20505;-64
2023/11/18 05:06:08;;;;;;;2.30;0.77;;;;;;;4.80;100.00;101877.59;5035126;28;20467;-65
2023/11/18 05:08:35;;;;;;;3.97;1.00;;;;;;;4.71;100.00;101871.75;5035003;28;20441;-64
2023/11/18 05:11:04;;;;;;;3.70;1.30;;;;;;;4.74;100.00;101873.97;5035301;28;20599;-64
2023/11/18 05:13:32;;;;;;;4.03;1.10;;;;;;;4.71;100.00;101871.75;5035505;28;20458;-64
2023/11/18 05:15:59;;;;;;;2.10;0.73;;;;;;;4.68;100.00;101871.38;5034896;28;20963;-64
2023/11/18 05:18:29;;;;;;;2.50;1.00;;;;;;;4.72;100.00;101875.25;5034698;28;20558;-64
2023/11/18 05:20:57;;;;;;;2.80;1.20;;;;;;;4.66;100.00;101873.50;5034849;28;20443;-64
2023/11/18 05:23:23;;;;;;;2.37;0.60;;;;;;;4.63;100.00;101869.38;5034353;28;20471;-64
2023/11/18 05:25:50;;;;;;;4.13;1.27;;;;;;;4.63;100.00;101872.06;5034732;28;20534;-64
2023/11/18 05:28:17;;;;;;;2.50;0.93;;;;;;;4.68;100.00;101872.19;5034706;28;20435;-64
2023/11/18 05:30:43;;;;;;;2.00;0.80;;;;;;;4.70;100.00;101874.66;5034757;28;20443;-64
2023/11/18 05:33:17;;;;;;;2.90;1.23;;;;;;;4.70;100.00;101875.47;5034439;28;20490;-65
2023/11/18 05:35:48;;;;;;;3.37;1.17;;;;;;;4.79;100.00;101879.47;5034603;28;20428;-64
2023/11/18 05:38:16;;;;;;;3.10;0.77;;;;;;;4.80;100.00;101880.28;5034656;28;20467;-64
2023/11/18 05:40:49;;;;;;;2.47;0.77;;;;;;;4.84;100.00;101869.91;5034485;28;20526;-64
2023/11/18 05:43:19;;;;;;;5.30;1.17;;;;;;;4.86;100.00;101875.84;5034290;28;20510;-64
2023/11/18 05:46:14;;;;;;;5.37;1.43;;;;;;;4.92;100.00;101878.44;5034564;28;20908;-63
2023/11/18 05:48:36;;;;;;;2.23;0.70;;;;;;;4.92;100.00;101878.44;5033813;28;20443;-64
2023/11/18 05:51:03;;;;;;;2.70;1.17;;;;;;;4.91;100.00;101878.66;5034616;28;20530;-64
2023/11/18 05:53:30;;;;;;;4.83;1.50;;;;;;;4.92;100.00;101885.69;5034496;28;20891;-64
2023/11/18 05:55:56;;;;;;;2.63;0.87;;;;;;;4.95;100.00;101894.06;5034445;28;20447;-64
2023/11/18 05:58:23;;;;;;;7.20;1.70;;;;;;;5.00;100.00;101893.38;5034058;28;20582;-64
2023/11/18 06:00:50;;;;;;;2.33;0.93;;;;;;;5.03;100.00;101884.88;5033974;28;20449;-64
2023/11/18 06:03:18;;;;;;;2.33;0.70;;;;;;;5.05;100.00;101888.97;5033606;28;20461;-64
2023/11/18 06:05:46;;;;;;;3.90;1.23;;;;;;;5.09;100.00;101894.69;5034361;28;20453;-64
2023/11/18 06:08:13;;;;;;;5.73;1.27;;;;;;;5.07;100.00;101897.59;5034020;28;20539;-64
2023/11/18 06:10:40;;;;;;;3.97;1.67;;;;;;;5.11;100.00;101897.97;5034204;28;20505;-64
2023/11/18 06:13:07;;;;;;;2.60;1.23;;;;;;;5.14;100.00;101894.81;5033817;28;20439;-64
2023/11/18 06:15:35;;;;;;;2.70;0.77;;;;;;;5.17;100.00;101897.03;5034316;28;20479;-64
2023/11/18 06:18:02;;;;;;;2.40;1.27;;;;;;;5.17;100.00;101896.22;5033684;28;20489;-64
2023/11/18 06:20:29;;;;;;;3.47;1.37;;;;;;;5.22;100.00;101894.47;5033744;28;20443;-64
2023/11/18 06:22:57;;;;;;;3.40;1.07;;;;;;;5.24;100.00;101902.28;5034055;28;20454;-63
2023/11/18 06:25:25;;;;;;;3.17;1.33;;;;;;;5.30;100.00;101893.28;5033526;28;20934;-64
2023/11/18 06:27:52;;;;;;;4.30;0.73;;;;;;;5.35;100.00;101897.97;5033827;28;20450;-64
2023/11/18 06:30:19;;;;;;;8.17;1.70;;;;;;;5.36;100.00;101899.59;5033678;28;20439;-64
2023/11/18 06:32:46;;;;;;;2.93;1.03;;;;;;;5.36;100.00;101902.28;5033693;28;20438;-63
2023/11/18 06:35:14;;;;;;;3.07;1.20;;;;;;;5.39;100.00;101912.56;5033589;28;20502;-64
2023/11/18 06:37:42;;;;;;;3.30;1.20;;;;;;;5.41;100.00;101911.31;5033153;28;20439;-64
2023/11/18 06:40:18;;;;;;;3.00;1.23;;;;;;;5.42;100.00;101909.44;5033273;28;20479;-64
2023/11/18 06:42:46;;;;;;;4.40;1.33;;;;;;;5.39;100.00;101908.00;5033637;28;20482;-64
2023/11/18 06:45:14;;;;;;;2.10;0.70;;;;;;;5.41;100.00;101923.91;5033722;28;20479;-64
2023/11/18 06:47:43;;;;;;;3.40;1.63;;;;;;;5.45;100.00;101920.53;5034204;28;20825;-66
2023/11/18 06:50:14;;;;;;;4.07;1.50;;;;;;;5.49;100.00;101921.69;5033709;28;20534;-66
2023/11/18 06:52:41;;;;;;;4.03;1.43;;;;;;;5.49;100.00;101928.91;5034484;28;20827;-65
2023/11/18 06:55:11;;;;;;;2.73;0.73;;;;;;;5.49;100.00;101929.75;5037536;28;20886;-65
2023/11/18 06:57:38;;;;;;;5.23;1.80;;;;;;;5.50;100.00;101917.97;5037428;28;20453;-64
2023/11/18 07:00:08;;;;;;;2.43;0.70;;;;;;;5.52;100.00;101915.03;5037853;28;20439;-65
2023/11/18 07:02:35;;;;;;;7.63;2.17;;;;;;;5.51;100.00;101916.09;5057786;22;20502;-68
2023/11/18 07:05:02;;;;;;;4.40;1.77;;;;;;;5.45;100.00;101915.16;5057708;28;20462;-69
2023/11/18 07:07:28;;;;;;;2.57;1.10;;;;;;;5.45;100.00;101925.91;5057618;28;20445;-69
2023/11/18 07:09:55;;;;;;;2.93;1.07;;;;;;;5.46;100.00;101924.03;5056947;28;20837;-70
2023/11/18 07:12:23;;;;;;;3.53;1.80;;;;;;;5.45;100.00;101925.91;5057305;28;20446;-68
2023/11/18 07:14:50;;;;;;;3.07;1.20;;;;;;;5.52;100.00;101920.41;5057410;28;20556;-69
2023/11/18 07:17:18;;;;;;;2.20;0.80;;;;;;;5.55;100.00;101917.25;5056737;28;20529;-68
2023/11/18 07:19:45;;;;;;;3.17;0.80;;;;;;;5.59;100.00;101921.09;5056949;28;20477;-68
2023/11/18 07:22:12;;;;;;;2.10;0.70;;;;;;;5.61;100.00;101921.69;5057187;28;20434;-68
2023/11/18 07:24:39;;;;;;;2.87;0.80;;;;;;;5.59;100.00;101934.53;5057078;28;20454;-68
2023/11/18 07:27:05;;;;;;;4.70;1.70;;;;;;;5.58;100.00;101935.59;5057282;28;20446;-69
2023/11/18 07:29:35;;;;;;;4.30;1.83;;;;;;;5.65;100.00;101941.66;5057224;28;20433;-68
2023/11/18 07:32:05;;;;;;;3.80;1.10;;;;;;;5.65;100.00;101946.22;5056843;28;20454;-69
2023/11/18 07:34:32;;;;;;;5.07;1.70;;;;;;;5.64;100.00;101964.22;5057386;28;20549;-68
2023/11/18 07:36:59;;;;;;;5.30;1.27;;;;;;;5.69;100.00;101958.16;5056767;28;20537;-69
2023/11/18 07:39:43;;;;;;;8.20;1.27;;;;;;;5.65;100.00;101965.03;5056878;28;20564;-68
2023/11/18 07:42:10;;;;;;;4.20;1.47;;;;;;;5.71;100.00;101974.84;5056689;28;20514;-68
2023/11/18 07:44:39;;;;;;;2.50;1.20;;;;;;;5.73;100.00;101975.44;5055581;28;20501;-68
2023/11/18 07:47:06;;;;;;;5.70;1.37;;;;;;;5.74;100.00;101971.69;5056735;28;20465;-69
2023/11/18 07:49:33;;;;;;;2.53;0.90;;;;;;;5.68;100.00;101978.84;5056688;28;20517;-69
2023/11/18 07:51:59;;;;;;;5.10;1.13;;;;;;;5.67;100.00;101982.59;5056630;28;20480;-69
2023/11/18 07:54:27;;;;;;;4.43;1.37;;;;;;;5.69;100.00;101983.16;5056599;28;20453;-69
2023/11/18 07:56:54;;;;;;;2.70;1.40;;;;;;;5.76;100.00;101989.25;5056714;28;20544;-69
2023/11/18 07:59:21;;;;;;;3.30;1.10;;;;;;;5.85;100.00;101991.59;5056514;28;20478;-69
2023/11/18 08:01:49;;;;;;;5.60;1.47;;;;;;;5.82;100.00;101985.59;5056761;28;20454;-69
2023/11/18 08:04:17;;;;;;;4.07;1.40;;;;;;;5.80;100.00;101987.72;5056548;28;20454;-69
2023/11/18 08:06:44;;;;;;;3.13;0.80;;;;;;;5.76;100.00;101985.75;5056484;28;20442;-69
2023/11/18 08:09:13;;;;;;;8.53;1.63;;;;;;;5.78;100.00;101983.63;5056639;28;20911;-69
2023/11/18 08:11:41;;;;;;;3.23;1.23;;;;;;;5.77;100.00;101993.56;5056497;28;20488;-69
2023/11/18 08:14:07;;;;;;;4.37;1.60;;;;;;;5.86;100.00;101995.91;5056408;28;20454;-69
2023/11/18 08:16:34;;;;;;;2.67;0.70;;;;;;;5.85;100.00;101994.28;5056332;28;21079;-69
2023/11/18 08:19:03;;;;;;;5.43;1.57;;;;;;;5.88;100.00;101989.22;5056450;28;20561;-69
2023/11/18 08:21:29;;;;;;;2.43;0.87;;;;;;;5.81;100.00;101988.53;5056459;28;20446;-69
2023/11/18 08:23:58;;;;;;;3.40;1.20;;;;;;;5.90;100.00;101987.13;5056019;28;20983;-69
2023/11/18 08:26:25;;;;;;;2.30;0.80;;;;;;;5.94;100.00;101992.91;5055850;28;20442;-69
2023/11/18 08:28:52;;;;;;;3.10;1.37;;;;;;;5.93;100.00;101980.47;5056437;28;20526;-69
2023/11/18 08:31:18;;;;;;;2.53;0.90;;;;;;;6.00;100.00;101984.69;5056262;28;20482;-69
2023/11/18 08:33:46;;;;;;;4.37;1.60;;;;;;;6.07;100.00;101982.69;5055927;28;20457;-72
2023/11/18 08:36:14;;;;;;;4.20;1.13;;;;;;;6.15;100.00;101984.19;5056066;28;20821;-68
2023/11/18 08:38:44;;;;;;;3.67;1.27;;;;;;;6.19;100.00;101981.84;5056041;28;20836;-71
2023/11/18 08:41:12;;;;;;;3.73;1.23;;;;;;;6.23;100.00;101975.75;5055889;28;20438;-70
2023/11/18 08:43:40;;;;;;;3.03;1.23;;;;;;;6.30;100.00;101976.44;5055976;28;20468;-70
2023/11/18 08:46:07;;;;;;;5.40;2.00;;;;;;;6.35;100.00;101978.44;5055886;28;20933;-71
2023/11/18 08:48:34;;;;;;;4.07;1.40;;;;;;;6.39;100.00;101978.78;5055628;28;20841;-70
2023/11/18 08:51:01;;;;;;;2.50;0.73;;;;;;;6.47;100.00;101975.72;5056238;28;20462;-69
2023/11/18 08:53:29;;;;;;;2.93;1.30;;;;;;;6.55;100.00;101988.75;5056388;28;20462;-69
2023/11/18 08:55:56;;;;;;;4.90;1.37;;;;;;;6.56;100.00;101993.94;5056839;28;20438;-69
2023/11/18 08:58:27;;;;;;;9.03;2.77;;;;;;;6.48;100.00;101996.19;5057246;28;20523;-69
2023/11/18 09:01:05;;;;;;;5.50;2.23;;;;;;;6.55;100.00;101995.00;5057441;28;20433;-69
2023/11/18 09:03:35;;;;;;;3.47;1.37;;;;;;;6.59;100.00;102000.69;5056047;28;20481;-69
2023/11/18 09:06:04;;;;;;;3.33;1.03;;;;;;;6.58;100.00;102001.75;5056941;28;20462;-69
2023/11/18 09:08:35;;;;;;;3.87;1.53;;;;;;;6.66;100.00;102006.78;5056491;28;20918;-70
2023/11/18 09:11:04;;;;;;;4.03;1.40;;;;;;;6.56;100.00;102010.09;5056341;28;20450;-69
2023/11/18 09:13:31;;;;;;;6.27;1.87;;;;;;;6.60;100.00;102012.28;5056272;28;20564;-69
2023/11/18 09:16:00;;;;;;;7.77;2.77;;;;;;;6.62;100.00;102013.69;5055377;28;20470;-70
2023/11/18 09:18:27;;;;;;;2.50;0.80;;;;;;;6.65;100.00;102012.41;5055970;28;20496;-69
2023/11/18 09:20:54;;;;;;;4.13;1.37;;;;;;;6.66;100.00;102009.47;5055674;28;21170;-69
2023/11/18 09:23:23;;;;;;;3.07;0.87;;;;;;;6.69;100.00;102021.63;5055482;28;20958;-69
2023/11/18 09:25:53;;;;;;;3.87;2.27;;;;;;;6.70;100.00;102007.94;5055690;28;20926;-69
2023/11/18 09:28:20;;;;;;;2.40;1.10;;;;;;;6.73;100.00;102010.16;5055307;28;20423;-69
2023/11/18 09:30:53;;;;;;;4.77;1.60;;;;;;;6.66;100.00;102011.34;5055550;28;20826;-69
2023/11/18 09:33:28;;;;;;;4.00;1.80;;;;;;;6.69;100.00;102000.09;5055209;28;20826;-69
2023/11/18 09:35:58;;;;;;;3.03;0.77;;;;;;;6.62;100.00;101994.84;5055204;28;20429;-69
2023/11/18 09:38:27;;;;;;;11.10;1.40;;;;;;;6.70;100.00;101996.34;5055565;28;20444;-69
2023/11/18 09:40:55;;;;;;;4.53;1.40;;;;;;;6.74;100.00;101995.63;5055062;28;20474;-69
2023/11/18 09:43:23;;;;;;;3.10;1.00;;;;;;;6.68;100.00;102003.81;5055225;28;20538;-69
2023/11/18 09:45:55;;;;;;;4.03;1.53;;;;;;;6.76;100.00;102009.66;5055382;28;20469;-69
2023/11/18 09:48:25;;;;;;;4.50;2.03;;;;;;;6.83;100.00;102014.91;5054809;28;20435;-69
2023/11/18 09:50:53;;;;;;;3.67;1.80;;;;;;;6.78;100.00;102014.81;5054791;28;20434;-69
2023/11/18 09:53:20;;;;;;;5.87;2.50;;;;;;;6.80;100.00;102013.50;5054437;28;20462;-70
2023/11/18 09:55:59;;;;;;;3.30;1.23;;;;;;;6.83;100.00;102018.41;5054782;28;20478;-70
2023/11/18 09:58:41;;;;;;;4.03;1.43;;;;;;;6.78;99.83;102015.63;5054543;28;20883;-70
2023/11/18 10:01:13;;;;;;;3.27;1.27;;;;;;;6.81;100.00;102022.38;5054789;28;20426;-69
2023/11/18 10:03:42;;;;;;;4.80;1.43;;;;;;;6.80;100.00;102016.19;5054183;28;20847;-69
2023/11/18 10:06:09;;;;;;;3.20;1.47;;;;;;;6.80;100.00;102018.88;5054038;28;20446;-69
2023/11/18 10:08:38;;;;;;;3.60;1.37;;;;;;;6.77;99.40;102010.47;5054169;28;20529;-69
2023/11/18 10:11:08;;;;;;;4.10;1.83;;;;;;;6.72;99.76;102008.50;5054065;28;20488;-70
2023/11/18 10:13:40;;;;;;;3.13;0.90;;;;;;;6.77;100.00;102018.53;5053728;28;20457;-69
2023/11/18 10:16:08;;;;;;;5.63;1.93;;;;;;;6.80;99.81;102018.06;5054109;28;20457;-69
2023/11/18 10:18:36;;;;;;;4.80;1.23;;;;;;;6.91;99.93;102011.84;5053488;28;20956;-69
2023/11/18 10:21:07;;;;;;;3.43;1.10;;;;;;;7.00;99.25;102007.69;5054163;28;20617;-69
2023/11/18 10:23:37;;;;;;;3.63;1.43;;;;;;;7.05;98.43;102013.16;5053866;28;20457;-69
2023/11/18 10:26:05;;;;;;;5.10;1.77;;;;;;;7.10;97.27;102006.22;5054265;28;20438;-70
2023/11/18 10:28:33;;;;;;;2.60;1.10;;;;;;;7.04;96.77;102003.47;5053246;28;20438;-70
2023/11/18 10:31:04;;;;;;;3.00;1.10;;;;;;;7.05;96.23;102006.97;5053513;28;20434;-71
2023/11/18 10:33:31;;;;;;;5.47;2.00;;;;;;;7.08;95.91;102004.59;5053330;28;20958;-71
2023/11/18 10:36:02;;;;;;;6.03;1.30;;;;;;;7.01;95.66;102009.31;5053670;28;20470;-68
2023/11/18 10:38:30;;;;;;;4.07;1.13;;;;;;;7.02;95.47;102007.44;5053534;28;20419;-68
2023/11/18 10:41:00;;;;;;;4.67;1.70;;;;;;;6.96;96.20;102003.03;5053618;28;20540;-69
2023/11/18 10:43:28;;;;;;;3.97;1.50;;;;;;;6.94;96.46;102002.44;5053707;28;20462;-69
2023/11/18 10:46:11;;;;;;;3.27;1.10;;;;;;;7.01;95.90;102016.59;5053764;28;20438;-69
2023/11/18 10:48:40;;;;;;;4.10;1.07;;;;;;;7.05;95.30;102023.13;5054167;28;20431;-69
2023/11/18 10:51:07;;;;;;;3.60;1.67;;;;;;;7.03;95.88;102023.34;5053419;28;20443;-69
2023/11/18 10:53:37;;;;;;;5.20;1.70;;;;;;;7.04;95.99;102022.31;5053580;28;20553;-69
2023/11/18 10:56:05;;;;;;;3.20;1.30;;;;;;;7.08;96.44;102025.31;5053394;28;20450;-68
2023/11/18 10:58:37;;;;;;;3.43;1.10;;;;;;;6.94;96.50;102005.94;5053325;28;20446;-68
2023/11/18 11:01:05;;;;;;;5.40;1.73;;;;;;;6.94;96.32;102013.22;5053407;28;20475;-68
2023/11/18 11:03:35;;;;;;;3.30;1.20;;;;;;;6.90;96.62;102017.44;5053185;28;20478;-69
2023/11/18 11:06:18;;;;;;;5.60;1.67;;;;;;;6.95;96.89;102020.22;5053091;28;20419;-68
2023/11/18 11:08:44;;;;;;;4.80;1.80;;;;;;;6.98;96.67;102025.13;5052827;28;20438;-68
2023/11/18 11:11:16;;;;;;;3.10;1.13;;;;;;;7.00;95.94;102021.16;5053063;28;20529;-68
2023/11/18 11:13:44;;;;;;;6.30;1.30;;;;;;;6.93;95.10;102033.13;5053347;28;20880;-68
2023/11/18 11:16:18;;;;;;;2.30;0.70;;;;;;;6.88;95.04;102024.97;5052966;28;20957;-68
2023/11/18 11:18:53;;;;;;;3.33;1.07;;;;;;;6.90;94.76;102018.25;5053396;28;20518;-68
2023/11/18 11:21:23;;;;;;;3.30;1.30;;;;;;;6.95;94.93;102006.75;5053211;28;20414;-68
2023/11/18 11:23:55;;;;;;;3.73;0.97;;;;;;;6.98;94.79;102014.38;5053038;28;20543;-69
2023/11/18 11:26:38;;;;;;;3.90;1.03;;;;;;;7.03;94.02;102003.69;5052840;28;20431;-68
2023/11/18 11:29:27;;;;;;;3.20;1.10;;;;;;;7.05;93.73;101998.88;5053174;28;20423;-69
2023/11/18 11:32:12;;;;;;;3.70;1.13;;;;;;;7.19;93.32;101996.69;5053407;28;20437;-69